KONX Airport (Currituck County Rgnl) Information

FAA: ONX - ICAO: KONX

KONX Airport Location

State North Carolina
County Currituck
City Currituck
KONX Airport is 4 miles south of Currituck, NC.
Latitude 36-23-59.8000N
Longitude 076-00-55.6000W
Elevation 17ft

KONX Airport METARs

METAR KONX 201815Z AUTO 19010G15KT 10SM -RA SCT026 SCT035 OVC090 26/22 A2991 RMK AO2 T02560224
Altimeter 29.91"
Temperature 25.6°C (78.1°F)
Wind 190° at 10KT with gusts to 15KT
Clouds scattered at 2,600ft scattered at 3,500ft overcast at 9,000ft
Visibility 10.0mi
Time observed: 2021-06-20T18:15:00Z

KONX Airport Details

Status Operational
Activation June 1976
Ownership Public
Usage Public
Chart WASHINGTON
ATC on-site No
Beacon schedule sunset-sunrise
Beacon color clear green

KONX Airport Contacts

Owner COUNTY OF CURRITUCK
Owner address 153 COURTHOUSE ROAD, SUITE 800, CURRITUCK, NC 27929-9653
Owner phone 252-232-2075
Manager ANDE KYLE ELKINS
Manager address 6253 ELKTON ROAD, CLARKTON, NC 28433
Manager phone 910-876-0908

KONX Airport (Currituck County Rgnl) Radio Frequencies

KONX (Airport) Radio Frequencies

UNICOM N/A
Common traffic advisory frequency (CTAF) 122.9